sensor_id;sensor_type;location;lat;lon;timestamp;P1;durP1;ratioP1;P2;durP2;ratioP2
12480;SDS011;6305;48.398;11.762;2023-07-16T00:00:46;13.68;;;5.90;;
12480;SDS011;6305;48.398;11.762;2023-07-16T00:03:13;6.93;;;5.65;;
12480;SDS011;6305;48.398;11.762;2023-07-16T00:05:40;10.73;;;6.13;;
12480;SDS011;6305;48.398;11.762;2023-07-16T00:08:07;10.93;;;6.00;;
12480;SDS011;6305;48.398;11.762;2023-07-16T00:10:34;9.38;;;6.45;;
12480;SDS011;6305;48.398;11.762;2023-07-16T00:13:01;10.80;;;6.80;;
12480;SDS011;6305;48.398;11.762;2023-07-16T00:15:29;12.10;;;7.35;;
12480;SDS011;6305;48.398;11.762;2023-07-16T00:17:57;8.60;;;7.38;;
12480;SDS011;6305;48.398;11.762;2023-07-16T00:20:25;10.45;;;7.28;;
12480;SDS011;6305;48.398;11.762;2023-07-16T00:22:52;8.88;;;7.53;;
12480;SDS011;6305;48.398;11.762;2023-07-16T00:25:20;10.13;;;7.88;;
12480;SDS011;6305;48.398;11.762;2023-07-16T00:27:47;12.95;;;8.82;;
12480;SDS011;6305;48.398;11.762;2023-07-16T00:30:14;12.32;;;8.23;;
12480;SDS011;6305;48.398;11.762;2023-07-16T00:32:41;10.68;;;8.30;;
12480;SDS011;6305;48.398;11.762;2023-07-16T00:35:10;13.68;;;9.30;;
12480;SDS011;6305;48.398;11.762;2023-07-16T00:37:37;14.90;;;9.65;;
12480;SDS011;6305;48.398;11.762;2023-07-16T00:40:06;12.90;;;9.05;;
12480;SDS011;6305;48.398;11.762;2023-07-16T00:42:34;15.43;;;9.63;;
12480;SDS011;6305;48.398;11.762;2023-07-16T00:45:01;12.90;;;9.48;;
12480;SDS011;6305;48.398;11.762;2023-07-16T00:47:29;13.23;;;9.55;;
12480;SDS011;6305;48.398;11.762;2023-07-16T00:49:56;11.20;;;8.63;;
12480;SDS011;6305;48.398;11.762;2023-07-16T00:52:25;15.55;;;9.70;;
12480;SDS011;6305;48.398;11.762;2023-07-16T00:54:54;12.95;;;9.77;;
12480;SDS011;6305;48.398;11.762;2023-07-16T00:57:22;12.43;;;9.70;;
12480;SDS011;6305;48.398;11.762;2023-07-16T00:59:49;15.10;;;10.65;;
12480;SDS011;6305;48.398;11.762;2023-07-16T01:02:16;15.63;;;10.15;;
12480;SDS011;6305;48.398;11.762;2023-07-16T01:04:43;15.27;;;10.35;;
12480;SDS011;6305;48.398;11.762;2023-07-16T01:07:11;13.07;;;10.13;;
12480;SDS011;6305;48.398;11.762;2023-07-16T01:09:42;13.32;;;10.30;;
12480;SDS011;6305;48.398;11.762;2023-07-16T01:12:10;13.60;;;10.05;;
12480;SDS011;6305;48.398;11.762;2023-07-16T01:14:39;13.20;;;10.45;;
12480;SDS011;6305;48.398;11.762;2023-07-16T01:17:06;12.82;;;10.52;;
12480;SDS011;6305;48.398;11.762;2023-07-16T01:19:34;13.43;;;10.23;;
12480;SDS011;6305;48.398;11.762;2023-07-16T01:22:04;15.35;;;10.52;;
12480;SDS011;6305;48.398;11.762;2023-07-16T01:24:58;14.40;;;11.63;;
12480;SDS011;6305;48.398;11.762;2023-07-16T01:27:36;16.27;;;11.05;;
12480;SDS011;6305;48.398;11.762;2023-07-16T01:30:18;14.23;;;10.80;;
12480;SDS011;6305;48.398;11.762;2023-07-16T01:32:46;14.75;;;10.38;;
12480;SDS011;6305;48.398;11.762;2023-07-16T01:35:14;15.02;;;11.48;;
12480;SDS011;6305;48.398;11.762;2023-07-16T01:37:42;15.77;;;10.93;;
12480;SDS011;6305;48.398;11.762;2023-07-16T01:40:09;17.50;;;11.32;;
12480;SDS011;6305;48.398;11.762;2023-07-16T01:42:37;16.70;;;11.65;;
12480;SDS011;6305;48.398;11.762;2023-07-16T01:45:04;15.10;;;11.20;;
12480;SDS011;6305;48.398;11.762;2023-07-16T01:47:35;16.58;;;11.52;;
12480;SDS011;6305;48.398;11.762;2023-07-16T01:50:11;17.75;;;11.55;;
12480;SDS011;6305;48.398;11.762;2023-07-16T01:52:38;17.67;;;12.07;;
12480;SDS011;6305;48.398;11.762;2023-07-16T01:55:05;19.08;;;11.80;;
12480;SDS011;6305;48.398;11.762;2023-07-16T01:57:32;14.70;;;11.23;;
12480;SDS011;6305;48.398;11.762;2023-07-16T01:59:59;15.95;;;11.77;;
12480;SDS011;6305;48.398;11.762;2023-07-16T02:02:26;17.17;;;11.52;;
12480;SDS011;6305;48.398;11.762;2023-07-16T02:04:55;14.70;;;11.80;;
12480;SDS011;6305;48.398;11.762;2023-07-16T02:07:23;17.35;;;11.85;;
12480;SDS011;6305;48.398;11.762;2023-07-16T02:09:50;18.95;;;12.43;;
12480;SDS011;6305;48.398;11.762;2023-07-16T02:12:17;16.58;;;12.00;;
12480;SDS011;6305;48.398;11.762;2023-07-16T02:14:44;16.98;;;12.25;;
12480;SDS011;6305;48.398;11.762;2023-07-16T02:17:12;15.88;;;12.00;;
12480;SDS011;6305;48.398;11.762;2023-07-16T02:19:40;18.20;;;12.63;;
12480;SDS011;6305;48.398;11.762;2023-07-16T02:22:10;18.08;;;12.57;;
12480;SDS011;6305;48.398;11.762;2023-07-16T02:24:37;23.88;;;13.20;;
12480;SDS011;6305;48.398;11.762;2023-07-16T02:27:04;19.52;;;13.20;;
12480;SDS011;6305;48.398;11.762;2023-07-16T02:29:32;19.80;;;13.45;;
12480;SDS011;6305;48.398;11.762;2023-07-16T02:31:59;20.67;;;14.85;;
12480;SDS011;6305;48.398;11.762;2023-07-16T02:34:26;17.05;;;13.38;;
12480;SDS011;6305;48.398;11.762;2023-07-16T02:36:53;19.48;;;14.02;;
12480;SDS011;6305;48.398;11.762;2023-07-16T02:39:21;18.40;;;13.20;;
12480;SDS011;6305;48.398;11.762;2023-07-16T02:41:48;17.75;;;12.57;;
12480;SDS011;6305;48.398;11.762;2023-07-16T02:44:16;18.27;;;12.60;;
12480;SDS011;6305;48.398;11.762;2023-07-16T02:46:43;19.38;;;13.02;;
12480;SDS011;6305;48.398;11.762;2023-07-16T02:49:10;18.33;;;12.77;;
12480;SDS011;6305;48.398;11.762;2023-07-16T02:51:37;15.25;;;12.48;;
12480;SDS011;6305;48.398;11.762;2023-07-16T02:54:04;16.15;;;13.30;;
12480;SDS011;6305;48.398;11.762;2023-07-16T02:56:33;15.23;;;12.40;;
12480;SDS011;6305;48.398;11.762;2023-07-16T02:59:00;15.65;;;11.82;;
12480;SDS011;6305;48.398;11.762;2023-07-16T03:01:27;17.20;;;12.40;;
12480;SDS011;6305;48.398;11.762;2023-07-16T03:03:53;15.02;;;10.77;;
12480;SDS011;6305;48.398;11.762;2023-07-16T03:06:22;14.02;;;11.48;;
12480;SDS011;6305;48.398;11.762;2023-07-16T03:08:50;14.88;;;10.63;;
12480;SDS011;6305;48.398;11.762;2023-07-16T03:11:18;15.63;;;10.52;;
12480;SDS011;6305;48.398;11.762;2023-07-16T03:13:46;12.30;;;9.48;;
12480;SDS011;6305;48.398;11.762;2023-07-16T03:16:13;10.98;;;7.85;;
12480;SDS011;6305;48.398;11.762;2023-07-16T03:18:40;10.30;;;6.97;;
12480;SDS011;6305;48.398;11.762;2023-07-16T03:21:07;9.13;;;6.57;;
12480;SDS011;6305;48.398;11.762;2023-07-16T03:23:35;7.60;;;6.15;;
12480;SDS011;6305;48.398;11.762;2023-07-16T03:26:02;7.18;;;6.20;;
12480;SDS011;6305;48.398;11.762;2023-07-16T03:28:29;7.68;;;5.93;;
12480;SDS011;6305;48.398;11.762;2023-07-16T03:30:57;5.18;;;4.63;;
12480;SDS011;6305;48.398;11.762;2023-07-16T03:33:25;7.35;;;5.00;;
12480;SDS011;6305;48.398;11.762;2023-07-16T03:35:52;5.00;;;4.50;;
12480;SDS011;6305;48.398;11.762;2023-07-16T03:38:19;4.80;;;3.97;;
12480;SDS011;6305;48.398;11.762;2023-07-16T03:40:47;4.50;;;3.70;;
12480;SDS011;6305;48.398;11.762;2023-07-16T03:43:15;5.57;;;3.80;;
12480;SDS011;6305;48.398;11.762;2023-07-16T03:45:43;3.67;;;3.38;;
12480;SDS011;6305;48.398;11.762;2023-07-16T03:48:12;4.70;;;3.70;;
12480;SDS011;6305;48.398;11.762;2023-07-16T03:50:39;4.53;;;3.75;;
12480;SDS011;6305;48.398;11.762;2023-07-16T03:53:06;4.72;;;3.80;;
12480;SDS011;6305;48.398;11.762;2023-07-16T03:55:33;4.03;;;3.35;;
12480;SDS011;6305;48.398;11.762;2023-07-16T03:58:01;3.85;;;3.05;;
12480;SDS011;6305;48.398;11.762;2023-07-16T04:00:28;6.65;;;3.78;;
12480;SDS011;6305;48.398;11.762;2023-07-16T04:02:55;3.80;;;3.28;;
12480;SDS011;6305;48.398;11.762;2023-07-16T04:05:23;4.60;;;3.28;;
12480;SDS011;6305;48.398;11.762;2023-07-16T04:07:50;4.68;;;3.20;;
12480;SDS011;6305;48.398;11.762;2023-07-16T04:10:17;4.85;;;3.95;;
12480;SDS011;6305;48.398;11.762;2023-07-16T04:12:44;3.75;;;3.30;;
12480;SDS011;6305;48.398;11.762;2023-07-16T04:15:11;6.43;;;3.33;;
12480;SDS011;6305;48.398;11.762;2023-07-16T04:17:38;4.85;;;3.63;;
12480;SDS011;6305;48.398;11.762;2023-07-16T04:20:06;5.28;;;3.47;;
12480;SDS011;6305;48.398;11.762;2023-07-16T04:22:35;4.15;;;3.65;;
12480;SDS011;6305;48.398;11.762;2023-07-16T04:25:02;5.97;;;3.58;;
12480;SDS011;6305;48.398;11.762;2023-07-16T04:27:29;4.32;;;3.83;;
12480;SDS011;6305;48.398;11.762;2023-07-16T04:29:56;6.35;;;3.80;;
12480;SDS011;6305;48.398;11.762;2023-07-16T04:32:23;4.75;;;3.88;;
12480;SDS011;6305;48.398;11.762;2023-07-16T04:34:50;4.05;;;3.60;;
12480;SDS011;6305;48.398;11.762;2023-07-16T04:37:17;5.57;;;4.00;;
12480;SDS011;6305;48.398;11.762;2023-07-16T04:39:45;4.43;;;4.03;;
12480;SDS011;6305;48.398;11.762;2023-07-16T04:42:12;4.53;;;3.92;;
12480;SDS011;6305;48.398;11.762;2023-07-16T04:44:39;5.10;;;3.60;;
12480;SDS011;6305;48.398;11.762;2023-07-16T04:47:06;3.40;;;3.08;;
12480;SDS011;6305;48.398;11.762;2023-07-16T04:49:34;5.03;;;3.85;;
12480;SDS011;6305;48.398;11.762;2023-07-16T04:52:01;4.38;;;3.67;;
12480;SDS011;6305;48.398;11.762;2023-07-16T04:54:28;3.83;;;3.42;;
12480;SDS011;6305;48.398;11.762;2023-07-16T04:57:01;3.50;;;3.20;;
12480;SDS011;6305;48.398;11.762;2023-07-16T04:59:29;4.38;;;3.38;;
12480;SDS011;6305;48.398;11.762;2023-07-16T05:01:56;3.95;;;3.20;;
12480;SDS011;6305;48.398;11.762;2023-07-16T05:04:22;3.80;;;3.50;;
12480;SDS011;6305;48.398;11.762;2023-07-16T05:06:49;4.82;;;3.58;;
12480;SDS011;6305;48.398;11.762;2023-07-16T05:09:17;4.65;;;3.70;;
12480;SDS011;6305;48.398;11.762;2023-07-16T05:11:45;4.45;;;3.80;;
12480;SDS011;6305;48.398;11.762;2023-07-16T05:14:14;5.15;;;3.40;;
12480;SDS011;6305;48.398;11.762;2023-07-16T05:16:40;5.32;;;3.47;;
12480;SDS011;6305;48.398;11.762;2023-07-16T05:19:07;4.35;;;3.58;;
12480;SDS011;6305;48.398;11.762;2023-07-16T05:21:34;6.95;;;4.22;;
12480;SDS011;6305;48.398;11.762;2023-07-16T05:24:01;4.38;;;3.67;;
12480;SDS011;6305;48.398;11.762;2023-07-16T05:26:28;3.58;;;3.28;;
12480;SDS011;6305;48.398;11.762;2023-07-16T05:28:55;6.07;;;3.58;;
12480;SDS011;6305;48.398;11.762;2023-07-16T05:31:24;4.80;;;3.55;;
12480;SDS011;6305;48.398;11.762;2023-07-16T05:33:50;4.35;;;3.38;;
12480;SDS011;6305;48.398;11.762;2023-07-16T05:36:17;3.33;;;3.03;;
12480;SDS011;6305;48.398;11.762;2023-07-16T05:38:44;4.35;;;3.47;;
12480;SDS011;6305;48.398;11.762;2023-07-16T05:41:11;5.55;;;3.03;;
12480;SDS011;6305;48.398;11.762;2023-07-16T05:43:38;4.00;;;3.20;;
12480;SDS011;6305;48.398;11.762;2023-07-16T05:46:05;3.78;;;2.90;;
12480;SDS011;6305;48.398;11.762;2023-07-16T05:48:33;5.10;;;3.08;;
12480;SDS011;6305;48.398;11.762;2023-07-16T05:51:00;3.40;;;2.95;;
12480;SDS011;6305;48.398;11.762;2023-07-16T05:53:27;2.88;;;2.60;;
12480;SDS011;6305;48.398;11.762;2023-07-16T05:55:54;4.00;;;3.33;;
12480;SDS011;6305;48.398;11.762;2023-07-16T05:58:21;4.10;;;3.13;;
12480;SDS011;6305;48.398;11.762;2023-07-16T06:00:48;3.88;;;2.90;;
12480;SDS011;6305;48.398;11.762;2023-07-16T06:03:15;3.17;;;2.80;;
12480;SDS011;6305;48.398;11.762;2023-07-16T06:05:45;4.65;;;3.13;;
12480;SDS011;6305;48.398;11.762;2023-07-16T06:08:12;3.40;;;2.90;;
12480;SDS011;6305;48.398;11.762;2023-07-16T06:10:39;3.08;;;2.72;;
12480;SDS011;6305;48.398;11.762;2023-07-16T06:13:06;2.70;;;2.40;;
12480;SDS011;6305;48.398;11.762;2023-07-16T06:15:32;3.03;;;2.28;;
12480;SDS011;6305;48.398;11.762;2023-07-16T06:17:59;3.67;;;2.40;;
12480;SDS011;6305;48.398;11.762;2023-07-16T06:20:27;2.58;;;2.10;;
12480;SDS011;6305;48.398;11.762;2023-07-16T06:22:55;2.60;;;2.17;;
12480;SDS011;6305;48.398;11.762;2023-07-16T06:25:22;3.05;;;2.35;;
12480;SDS011;6305;48.398;11.762;2023-07-16T06:27:49;2.35;;;2.05;;
12480;SDS011;6305;48.398;11.762;2023-07-16T06:30:16;3.13;;;2.17;;
12480;SDS011;6305;48.398;11.762;2023-07-16T06:32:43;2.28;;;2.08;;
12480;SDS011;6305;48.398;11.762;2023-07-16T06:35:10;2.15;;;1.92;;
12480;SDS011;6305;48.398;11.762;2023-07-16T06:37:37;2.00;;;1.80;;
12480;SDS011;6305;48.398;11.762;2023-07-16T06:40:06;2.28;;;2.03;;
12480;SDS011;6305;48.398;11.762;2023-07-16T06:42:34;2.17;;;1.98;;
12480;SDS011;6305;48.398;11.762;2023-07-16T06:45:01;2.95;;;1.90;;
12480;SDS011;6305;48.398;11.762;2023-07-16T06:47:28;3.17;;;2.00;;
12480;SDS011;6305;48.398;11.762;2023-07-16T06:49:55;2.53;;;1.70;;
12480;SDS011;6305;48.398;11.762;2023-07-16T06:52:22;2.10;;;1.88;;
12480;SDS011;6305;48.398;11.762;2023-07-16T06:54:52;2.75;;;1.80;;
12480;SDS011;6305;48.398;11.762;2023-07-16T06:57:21;3.35;;;2.00;;
12480;SDS011;6305;48.398;11.762;2023-07-16T06:59:48;2.50;;;2.03;;
12480;SDS011;6305;48.398;11.762;2023-07-16T07:02:15;2.40;;;2.20;;
12480;SDS011;6305;48.398;11.762;2023-07-16T07:04:43;4.63;;;2.08;;
12480;SDS011;6305;48.398;11.762;2023-07-16T07:07:10;1.90;;;1.70;;
12480;SDS011;6305;48.398;11.762;2023-07-16T07:09:36;1.60;;;1.50;;
12480;SDS011;6305;48.398;11.762;2023-07-16T07:12:03;2.42;;;1.80;;
12480;SDS011;6305;48.398;11.762;2023-07-16T07:14:33;3.97;;;1.50;;
12480;SDS011;6305;48.398;11.762;2023-07-16T07:17:00;2.08;;;1.50;;
12480;SDS011;6305;48.398;11.762;2023-07-16T07:19:27;6.57;;;1.48;;
12480;SDS011;6305;48.398;11.762;2023-07-16T07:21:54;1.92;;;1.75;;
12480;SDS011;6305;48.398;11.762;2023-07-16T07:24:21;2.63;;;1.67;;
12480;SDS011;6305;48.398;11.762;2023-07-16T07:26:48;2.33;;;1.70;;
12480;SDS011;6305;48.398;11.762;2023-07-16T07:29:15;2.80;;;1.80;;
12480;SDS011;6305;48.398;11.762;2023-07-16T07:31:43;3.45;;;1.77;;
12480;SDS011;6305;48.398;11.762;2023-07-16T07:34:10;2.08;;;1.80;;
12480;SDS011;6305;48.398;11.762;2023-07-16T07:36:37;3.08;;;1.80;;
12480;SDS011;6305;48.398;11.762;2023-07-16T07:39:04;3.10;;;1.70;;
12480;SDS011;6305;48.398;11.762;2023-07-16T07:41:31;1.60;;;1.50;;
12480;SDS011;6305;48.398;11.762;2023-07-16T07:43:58;2.08;;;1.80;;
12480;SDS011;6305;48.398;11.762;2023-07-16T07:46:25;3.40;;;2.03;;
12480;SDS011;6305;48.398;11.762;2023-07-16T07:48:53;2.55;;;1.73;;
12480;SDS011;6305;48.398;11.762;2023-07-16T07:51:20;2.00;;;1.77;;
12480;SDS011;6305;48.398;11.762;2023-07-16T07:53:48;4.40;;;2.10;;
12480;SDS011;6305;48.398;11.762;2023-07-16T07:56:15;2.75;;;2.00;;
12480;SDS011;6305;48.398;11.762;2023-07-16T07:58:42;3.08;;;2.10;;
12480;SDS011;6305;48.398;11.762;2023-07-16T08:01:09;2.60;;;1.95;;
12480;SDS011;6305;48.398;11.762;2023-07-16T08:03:36;2.13;;;1.70;;
12480;SDS011;6305;48.398;11.762;2023-07-16T08:06:04;3.75;;;2.13;;
12480;SDS011;6305;48.398;11.762;2023-07-16T08:08:31;2.28;;;1.77;;
12480;SDS011;6305;48.398;11.762;2023-07-16T08:10:58;3.28;;;1.92;;
12480;SDS011;6305;48.398;11.762;2023-07-16T08:13:25;3.58;;;2.10;;
12480;SDS011;6305;48.398;11.762;2023-07-16T08:15:52;2.30;;;1.95;;
12480;SDS011;6305;48.398;11.762;2023-07-16T08:18:19;2.13;;;1.92;;
12480;SDS011;6305;48.398;11.762;2023-07-16T08:20:46;4.03;;;2.03;;
12480;SDS011;6305;48.398;11.762;2023-07-16T08:23:14;2.55;;;2.03;;
12480;SDS011;6305;48.398;11.762;2023-07-16T08:25:42;4.05;;;2.25;;
12480;SDS011;6305;48.398;11.762;2023-07-16T08:28:09;3.88;;;2.00;;
12480;SDS011;6305;48.398;11.762;2023-07-16T08:30:36;2.53;;;1.70;;
12480;SDS011;6305;48.398;11.762;2023-07-16T08:33:03;2.60;;;1.80;;
12480;SDS011;6305;48.398;11.762;2023-07-16T08:35:31;2.50;;;2.10;;
12480;SDS011;6305;48.398;11.762;2023-07-16T08:37:58;2.83;;;2.00;;
12480;SDS011;6305;48.398;11.762;2023-07-16T08:40:26;2.80;;;2.00;;
12480;SDS011;6305;48.398;11.762;2023-07-16T08:42:53;2.20;;;1.98;;
12480;SDS011;6305;48.398;11.762;2023-07-16T08:45:22;3.25;;;1.75;;
12480;SDS011;6305;48.398;11.762;2023-07-16T08:47:53;1.90;;;1.77;;
12480;SDS011;6305;48.398;11.762;2023-07-16T08:50:21;2.10;;;1.90;;
12480;SDS011;6305;48.398;11.762;2023-07-16T08:52:49;3.75;;;1.95;;
12480;SDS011;6305;48.398;11.762;2023-07-16T08:55:16;2.72;;;1.80;;
12480;SDS011;6305;48.398;11.762;2023-07-16T08:57:45;2.92;;;2.03;;
12480;SDS011;6305;48.398;11.762;2023-07-16T09:00:12;2.30;;;2.10;;
12480;SDS011;6305;48.398;11.762;2023-07-16T09:02:40;2.97;;;1.60;;
12480;SDS011;6305;48.398;11.762;2023-07-16T09:05:07;2.53;;;1.90;;
12480;SDS011;6305;48.398;11.762;2023-07-16T09:07:35;1.75;;;1.42;;
12480;SDS011;6305;48.398;11.762;2023-07-16T09:10:03;2.53;;;1.70;;
12480;SDS011;6305;48.398;11.762;2023-07-16T09:12:30;1.50;;;1.40;;
12480;SDS011;6305;48.398;11.762;2023-07-16T09:14:58;2.30;;;2.00;;
12480;SDS011;6305;48.398;11.762;2023-07-16T09:17:25;2.22;;;1.75;;
12480;SDS011;6305;48.398;11.762;2023-07-16T09:19:52;1.73;;;1.50;;
12480;SDS011;6305;48.398;11.762;2023-07-16T09:22:20;2.00;;;1.80;;
12480;SDS011;6305;48.398;11.762;2023-07-16T09:24:47;3.90;;;1.80;;
12480;SDS011;6305;48.398;11.762;2023-07-16T09:27:14;1.80;;;1.70;;
12480;SDS011;6305;48.398;11.762;2023-07-16T09:29:41;1.90;;;1.70;;
12480;SDS011;6305;48.398;11.762;2023-07-16T09:32:09;2.53;;;1.70;;
12480;SDS011;6305;48.398;11.762;2023-07-16T09:34:36;2.17;;;1.80;;
12480;SDS011;6305;48.398;11.762;2023-07-16T09:37:04;2.38;;;1.85;;
12480;SDS011;6305;48.398;11.762;2023-07-16T09:39:31;2.70;;;1.95;;
12480;SDS011;6305;48.398;11.762;2023-07-16T09:41:59;2.13;;;1.70;;
12480;SDS011;6305;48.398;11.762;2023-07-16T09:44:28;2.30;;;1.95;;
12480;SDS011;6305;48.398;11.762;2023-07-16T09:46:56;2.08;;;1.65;;
12480;SDS011;6305;48.398;11.762;2023-07-16T09:49:25;3.22;;;1.80;;
12480;SDS011;6305;48.398;11.762;2023-07-16T09:51:56;3.20;;;1.80;;
12480;SDS011;6305;48.398;11.762;2023-07-16T09:54:24;2.65;;;2.20;;
12480;SDS011;6305;48.398;11.762;2023-07-16T09:56:53;2.75;;;2.03;;
12480;SDS011;6305;48.398;11.762;2023-07-16T09:59:25;1.90;;;1.70;;
12480;SDS011;6305;48.398;11.762;2023-07-16T10:01:54;2.42;;;2.05;;
12480;SDS011;6305;48.398;11.762;2023-07-16T10:04:22;1.80;;;1.70;;
12480;SDS011;6305;48.398;11.762;2023-07-16T10:06:53;2.17;;;1.98;;
12480;SDS011;6305;48.398;11.762;2023-07-16T10:09:34;1.60;;;1.50;;
12480;SDS011;6305;48.398;11.762;2023-07-16T10:12:12;3.63;;;1.80;;
12480;SDS011;6305;48.398;11.762;2023-07-16T10:14:41;2.25;;;1.88;;
12480;SDS011;6305;48.398;11.762;2023-07-16T10:17:12;2.70;;;1.80;;
12480;SDS011;6305;48.398;11.762;2023-07-16T10:19:54;3.60;;;1.98;;
12480;SDS011;6305;48.398;11.762;2023-07-16T10:22:32;2.60;;;2.00;;
12480;SDS011;6305;48.398;11.762;2023-07-16T10:25:01;2.03;;;1.70;;
12480;SDS011;6305;48.398;11.762;2023-07-16T10:27:31;2.60;;;1.90;;
12480;SDS011;6305;48.398;11.762;2023-07-16T10:29:59;2.08;;;1.88;;
12480;SDS011;6305;48.398;11.762;2023-07-16T10:32:30;2.10;;;1.90;;
12480;SDS011;6305;48.398;11.762;2023-07-16T10:34:59;3.03;;;1.90;;
12480;SDS011;6305;48.398;11.762;2023-07-16T10:37:27;2.28;;;1.65;;
12480;SDS011;6305;48.398;11.762;2023-07-16T10:39:54;2.00;;;1.90;;
12480;SDS011;6305;48.398;11.762;2023-07-16T10:42:23;2.42;;;2.10;;
12480;SDS011;6305;48.398;11.762;2023-07-16T10:44:51;2.33;;;2.03;;
12480;SDS011;6305;48.398;11.762;2023-07-16T10:47:19;2.20;;;2.00;;
12480;SDS011;6305;48.398;11.762;2023-07-16T10:49:51;2.22;;;1.88;;
12480;SDS011;6305;48.398;11.762;2023-07-16T10:52:21;2.10;;;1.90;;
12480;SDS011;6305;48.398;11.762;2023-07-16T10:54:49;2.78;;;1.77;;
12480;SDS011;6305;48.398;11.762;2023-07-16T10:57:19;3.05;;;1.95;;
12480;SDS011;6305;48.398;11.762;2023-07-16T10:59:47;2.63;;;2.15;;
12480;SDS011;6305;48.398;11.762;2023-07-16T11:02:15;1.95;;;1.70;;
12480;SDS011;6305;48.398;11.762;2023-07-16T11:04:43;3.13;;;2.00;;
12480;SDS011;6305;48.398;11.762;2023-07-16T11:07:12;1.80;;;1.70;;
12480;SDS011;6305;48.398;11.762;2023-07-16T11:09:42;1.98;;;1.80;;
12480;SDS011;6305;48.398;11.762;2023-07-16T11:12:10;1.83;;;1.73;;
12480;SDS011;6305;48.398;11.762;2023-07-16T11:14:38;2.10;;;1.70;;
12480;SDS011;6305;48.398;11.762;2023-07-16T11:17:06;2.40;;;1.80;;
12480;SDS011;6305;48.398;11.762;2023-07-16T11:19:34;2.53;;;2.00;;
12480;SDS011;6305;48.398;11.762;2023-07-16T11:22:02;2.55;;;1.60;;
12480;SDS011;6305;48.398;11.762;2023-07-16T11:24:35;2.35;;;1.90;;
12480;SDS011;6305;48.398;11.762;2023-07-16T11:27:06;2.83;;;1.90;;
12480;SDS011;6305;48.398;11.762;2023-07-16T11:29:39;2.90;;;1.55;;
12480;SDS011;6305;48.398;11.762;2023-07-16T11:32:07;2.00;;;1.80;;
12480;SDS011;6305;48.398;11.762;2023-07-16T11:34:34;2.15;;;1.90;;
12480;SDS011;6305;48.398;11.762;2023-07-16T11:37:08;2.78;;;1.95;;
12480;SDS011;6305;48.398;11.762;2023-07-16T11:39:37;2.40;;;2.17;;
12480;SDS011;6305;48.398;11.762;2023-07-16T11:42:06;2.58;;;1.90;;
12480;SDS011;6305;48.398;11.762;2023-07-16T11:44:33;4.65;;;1.90;;
12480;SDS011;6305;48.398;11.762;2023-07-16T11:47:01;2.45;;;1.83;;
12480;SDS011;6305;48.398;11.762;2023-07-16T11:49:29;1.80;;;1.52;;
12480;SDS011;6305;48.398;11.762;2023-07-16T11:51:56;1.60;;;1.50;;
12480;SDS011;6305;48.398;11.762;2023-07-16T11:54:24;1.95;;;1.75;;
12480;SDS011;6305;48.398;11.762;2023-07-16T11:56:51;1.98;;;1.77;;
12480;SDS011;6305;48.398;11.762;2023-07-16T11:59:19;2.42;;;1.95;;
12480;SDS011;6305;48.398;11.762;2023-07-16T12:01:49;2.03;;;1.83;;
12480;SDS011;6305;48.398;11.762;2023-07-16T12:04:17;1.92;;;1.73;;
12480;SDS011;6305;48.398;11.762;2023-07-16T12:06:44;2.67;;;1.85;;
12480;SDS011;6305;48.398;11.762;2023-07-16T12:09:11;2.53;;;1.90;;
12480;SDS011;6305;48.398;11.762;2023-07-16T12:11:38;1.70;;;1.60;;
12480;SDS011;6305;48.398;11.762;2023-07-16T12:14:05;1.95;;;1.85;;
12480;SDS011;6305;48.398;11.762;2023-07-16T12:16:33;2.40;;;1.90;;
12480;SDS011;6305;48.398;11.762;2023-07-16T12:19:00;2.30;;;2.10;;
12480;SDS011;6305;48.398;11.762;2023-07-16T12:21:27;2.88;;;2.00;;
12480;SDS011;6305;48.398;11.762;2023-07-16T12:23:54;2.08;;;1.67;;
12480;SDS011;6305;48.398;11.762;2023-07-16T12:26:21;2.08;;;1.75;;
12480;SDS011;6305;48.398;11.762;2023-07-16T12:28:48;2.38;;;2.00;;
12480;SDS011;6305;48.398;11.762;2023-07-16T12:31:15;3.58;;;2.00;;
12480;SDS011;6305;48.398;11.762;2023-07-16T12:33:44;2.30;;;1.90;;
12480;SDS011;6305;48.398;11.762;2023-07-16T12:36:11;2.50;;;1.55;;
12480;SDS011;6305;48.398;11.762;2023-07-16T12:38:38;2.30;;;2.00;;
12480;SDS011;6305;48.398;11.762;2023-07-16T12:41:05;2.38;;;2.05;;
12480;SDS011;6305;48.398;11.762;2023-07-16T12:43:32;4.47;;;2.05;;
12480;SDS011;6305;48.398;11.762;2023-07-16T12:46:00;1.88;;;1.67;;
12480;SDS011;6305;48.398;11.762;2023-07-16T12:48:27;2.40;;;2.00;;
12480;SDS011;6305;48.398;11.762;2023-07-16T12:50:57;1.88;;;1.70;;
12480;SDS011;6305;48.398;11.762;2023-07-16T12:53:24;2.55;;;2.05;;
12480;SDS011;6305;48.398;11.762;2023-07-16T12:55:51;2.28;;;2.08;;
12480;SDS011;6305;48.398;11.762;2023-07-16T12:58:18;2.10;;;1.90;;
12480;SDS011;6305;48.398;11.762;2023-07-16T13:00:46;2.88;;;2.00;;
12480;SDS011;6305;48.398;11.762;2023-07-16T13:03:12;2.22;;;2.03;;
12480;SDS011;6305;48.398;11.762;2023-07-16T13:05:42;2.53;;;1.80;;
12480;SDS011;6305;48.398;11.762;2023-07-16T13:08:11;1.92;;;1.73;;
12480;SDS011;6305;48.398;11.762;2023-07-16T13:10:38;2.10;;;1.90;;
12480;SDS011;6305;48.398;11.762;2023-07-16T13:13:05;1.73;;;1.60;;
12480;SDS011;6305;48.398;11.762;2023-07-16T13:15:33;3.20;;;1.95;;
12480;SDS011;6305;48.398;11.762;2023-07-16T13:18:00;2.60;;;1.80;;
12480;SDS011;6305;48.398;11.762;2023-07-16T13:20:27;2.00;;;1.80;;
12480;SDS011;6305;48.398;11.762;2023-07-16T13:22:55;2.97;;;2.58;;
12480;SDS011;6305;48.398;11.762;2023-07-16T13:25:23;2.78;;;2.08;;
12480;SDS011;6305;48.398;11.762;2023-07-16T13:27:50;1.92;;;1.83;;
12480;SDS011;6305;48.398;11.762;2023-07-16T13:30:18;2.22;;;2.00;;
12480;SDS011;6305;48.398;11.762;2023-07-16T13:32:45;3.55;;;2.08;;
12480;SDS011;6305;48.398;11.762;2023-07-16T13:35:14;2.78;;;2.22;;
12480;SDS011;6305;48.398;11.762;2023-07-16T13:37:41;4.78;;;2.20;;
12480;SDS011;6305;48.398;11.762;2023-07-16T13:40:08;2.50;;;2.03;;
12480;SDS011;6305;48.398;11.762;2023-07-16T13:42:37;2.25;;;1.77;;
12480;SDS011;6305;48.398;11.762;2023-07-16T13:45:05;2.05;;;1.85;;
12480;SDS011;6305;48.398;11.762;2023-07-16T13:47:32;2.10;;;1.92;;
12480;SDS011;6305;48.398;11.762;2023-07-16T13:49:59;2.50;;;1.88;;
12480;SDS011;6305;48.398;11.762;2023-07-16T13:52:26;3.10;;;2.00;;
12480;SDS011;6305;48.398;11.762;2023-07-16T13:54:53;2.05;;;1.85;;
12480;SDS011;6305;48.398;11.762;2023-07-16T13:57:20;3.60;;;2.00;;
12480;SDS011;6305;48.398;11.762;2023-07-16T13:59:48;2.38;;;1.83;;
12480;SDS011;6305;48.398;11.762;2023-07-16T14:02:15;2.00;;;1.85;;
12480;SDS011;6305;48.398;11.762;2023-07-16T14:04:42;2.00;;;1.80;;
12480;SDS011;6305;48.398;11.762;2023-07-16T14:07:09;1.88;;;1.75;;
12480;SDS011;6305;48.398;11.762;2023-07-16T14:09:36;3.05;;;1.88;;
12480;SDS011;6305;48.398;11.762;2023-07-16T14:12:03;2.20;;;2.00;;
12480;SDS011;6305;48.398;11.762;2023-07-16T14:14:30;2.65;;;2.10;;
12480;SDS011;6305;48.398;11.762;2023-07-16T14:16:59;2.55;;;2.00;;
12480;SDS011;6305;48.398;11.762;2023-07-16T14:19:26;2.10;;;1.73;;
12480;SDS011;6305;48.398;11.762;2023-07-16T14:21:54;2.20;;;2.00;;
12480;SDS011;6305;48.398;11.762;2023-07-16T14:24:21;2.05;;;1.75;;
12480;SDS011;6305;48.398;11.762;2023-07-16T14:26:48;2.08;;;1.85;;
12480;SDS011;6305;48.398;11.762;2023-07-16T14:29:16;2.35;;;1.70;;
12480;SDS011;6305;48.398;11.762;2023-07-16T14:31:43;2.95;;;2.15;;
12480;SDS011;6305;48.398;11.762;2023-07-16T14:34:14;2.90;;;2.10;;
12480;SDS011;6305;48.398;11.762;2023-07-16T14:36:41;2.22;;;1.92;;
12480;SDS011;6305;48.398;11.762;2023-07-16T14:39:08;3.60;;;2.20;;
12480;SDS011;6305;48.398;11.762;2023-07-16T14:41:35;2.08;;;1.88;;
12480;SDS011;6305;48.398;11.762;2023-07-16T14:44:04;2.20;;;2.00;;
12480;SDS011;6305;48.398;11.762;2023-07-16T14:46:30;2.63;;;2.25;;